sensor_id;sensor_type;location;lat;lon;timestamp;P1;durP1;ratioP1;P2;durP2;ratioP2
52266;SDS011;38223;50.940;4.034;2023-01-30T00:02:25;47.05;;;30.68;;
52266;SDS011;38223;50.940;4.034;2023-01-30T00:04:54;46.70;;;29.05;;
52266;SDS011;38223;50.940;4.034;2023-01-30T00:09:52;44.40;;;29.35;;
52266;SDS011;38223;50.940;4.034;2023-01-30T00:12:26;45.70;;;30.15;;
52266;SDS011;38223;50.940;4.034;2023-01-30T00:15:00;45.25;;;30.02;;
52266;SDS011;38223;50.940;4.034;2023-01-30T00:17:33;44.33;;;30.12;;
52266;SDS011;38223;50.940;4.034;2023-01-30T00:20:07;47.40;;;30.75;;
52266;SDS011;38223;50.940;4.034;2023-01-30T00:22:43;44.90;;;30.77;;
52266;SDS011;38223;50.940;4.034;2023-01-30T00:25:17;51.15;;;32.23;;
52266;SDS011;38223;50.940;4.034;2023-01-30T00:27:46;44.73;;;31.57;;
52266;SDS011;38223;50.940;4.034;2023-01-30T00:30:19;45.88;;;31.00;;
52266;SDS011;38223;50.940;4.034;2023-01-30T00:32:52;50.12;;;30.35;;
52266;SDS011;38223;50.940;4.034;2023-01-30T00:35:29;43.38;;;30.25;;
52266;SDS011;38223;50.940;4.034;2023-01-30T00:37:59;44.67;;;31.10;;
52266;SDS011;38223;50.940;4.034;2023-01-30T00:40:35;47.55;;;31.23;;
52266;SDS011;38223;50.940;4.034;2023-01-30T00:43:13;42.08;;;29.87;;
52266;SDS011;38223;50.940;4.034;2023-01-30T00:46:07;43.45;;;29.25;;
52266;SDS011;38223;50.940;4.034;2023-01-30T00:49:00;42.98;;;28.27;;
52266;SDS011;38223;50.940;4.034;2023-01-30T00:51:32;43.30;;;27.70;;
52266;SDS011;38223;50.940;4.034;2023-01-30T00:54:06;41.70;;;27.90;;
52266;SDS011;38223;50.940;4.034;2023-01-30T00:56:38;40.03;;;27.22;;
52266;SDS011;38223;50.940;4.034;2023-01-30T00:59:06;42.23;;;27.30;;
52266;SDS011;38223;50.940;4.034;2023-01-30T01:01:33;36.45;;;26.87;;
52266;SDS011;38223;50.940;4.034;2023-01-30T01:04:02;39.83;;;27.00;;
52266;SDS011;38223;50.940;4.034;2023-01-30T01:06:31;35.50;;;26.15;;
52266;SDS011;38223;50.940;4.034;2023-01-30T01:08:58;34.38;;;25.05;;
52266;SDS011;38223;50.940;4.034;2023-01-30T01:11:27;35.88;;;24.85;;
52266;SDS011;38223;50.940;4.034;2023-01-30T01:13:58;34.35;;;24.47;;
52266;SDS011;38223;50.940;4.034;2023-01-30T01:16:32;39.98;;;23.87;;
52266;SDS011;38223;50.940;4.034;2023-01-30T01:19:04;35.45;;;23.02;;
52266;SDS011;38223;50.940;4.034;2023-01-30T01:21:32;33.75;;;22.05;;
52266;SDS011;38223;50.940;4.034;2023-01-30T01:23:59;37.23;;;22.65;;
52266;SDS011;38223;50.940;4.034;2023-01-30T01:48:33;30.65;;;19.52;;
52266;SDS011;38223;50.940;4.034;2023-01-30T01:51:08;27.48;;;18.87;;
52266;SDS011;38223;50.940;4.034;2023-01-30T01:53:45;29.90;;;18.60;;
52266;SDS011;38223;50.940;4.034;2023-01-30T01:56:12;25.88;;;18.17;;
52266;SDS011;38223;50.940;4.034;2023-01-30T01:58:48;28.92;;;18.23;;
52266;SDS011;38223;50.940;4.034;2023-01-30T02:01:20;23.62;;;17.17;;
52266;SDS011;38223;50.940;4.034;2023-01-30T02:03:53;21.93;;;17.42;;
52266;SDS011;38223;50.940;4.034;2023-01-30T02:06:27;24.45;;;16.93;;
52266;SDS011;38223;50.940;4.034;2023-01-30T02:09:01;22.95;;;16.73;;
52266;SDS011;38223;50.940;4.034;2023-01-30T02:11:48;25.62;;;16.52;;
52266;SDS011;38223;50.940;4.034;2023-01-30T02:14:17;25.70;;;16.52;;
52266;SDS011;38223;50.940;4.034;2023-01-30T02:16:51;23.95;;;16.52;;
52266;SDS011;38223;50.940;4.034;2023-01-30T02:31:02;28.95;;;17.23;;
52266;SDS011;38223;50.940;4.034;2023-01-30T02:36:46;25.37;;;17.75;;
52266;SDS011;38223;50.940;4.034;2023-01-30T02:47:33;24.37;;;17.37;;
52266;SDS011;38223;50.940;4.034;2023-01-30T02:50:14;24.52;;;16.80;;
52266;SDS011;38223;50.940;4.034;2023-01-30T02:52:49;25.62;;;17.17;;
52266;SDS011;38223;50.940;4.034;2023-01-30T02:55:22;24.18;;;17.52;;
52266;SDS011;38223;50.940;4.034;2023-01-30T02:57:50;27.42;;;17.00;;
52266;SDS011;38223;50.940;4.034;2023-01-30T03:05:52;24.60;;;15.80;;
52266;SDS011;38223;50.940;4.034;2023-01-30T03:11:32;23.52;;;15.68;;
52266;SDS011;38223;50.940;4.034;2023-01-30T03:14:32;25.77;;;16.87;;
52266;SDS011;38223;50.940;4.034;2023-01-30T03:17:19;28.92;;;16.27;;
52266;SDS011;38223;50.940;4.034;2023-01-30T03:19:53;20.82;;;14.78;;
52266;SDS011;38223;50.940;4.034;2023-01-30T03:22:30;20.68;;;14.98;;
52266;SDS011;38223;50.940;4.034;2023-01-30T03:25:04;25.27;;;14.68;;
52266;SDS011;38223;50.940;4.034;2023-01-30T03:27:36;20.70;;;14.15;;
52266;SDS011;38223;50.940;4.034;2023-01-30T03:30:12;21.80;;;14.23;;
52266;SDS011;38223;50.940;4.034;2023-01-30T03:32:49;20.52;;;13.13;;
52266;SDS011;38223;50.940;4.034;2023-01-30T03:35:19;24.00;;;13.43;;
52266;SDS011;38223;50.940;4.034;2023-01-30T03:37:48;19.17;;;12.63;;
52266;SDS011;38223;50.940;4.034;2023-01-30T03:40:19;21.17;;;13.60;;
52266;SDS011;38223;50.940;4.034;2023-01-30T03:42:52;19.42;;;12.23;;
52266;SDS011;38223;50.940;4.034;2023-01-30T03:45:26;23.52;;;12.15;;
52266;SDS011;38223;50.940;4.034;2023-01-30T03:47:58;15.80;;;11.48;;
52266;SDS011;38223;50.940;4.034;2023-01-30T03:50:27;16.23;;;11.88;;
52266;SDS011;38223;50.940;4.034;2023-01-30T03:53:01;22.60;;;12.18;;
52266;SDS011;38223;50.940;4.034;2023-01-30T03:55:31;17.48;;;11.45;;
52266;SDS011;38223;50.940;4.034;2023-01-30T03:57:59;24.23;;;12.65;;
52266;SDS011;38223;50.940;4.034;2023-01-30T04:00:32;19.98;;;11.60;;
52266;SDS011;38223;50.940;4.034;2023-01-30T04:03:06;19.55;;;11.55;;
52266;SDS011;38223;50.940;4.034;2023-01-30T04:05:41;17.40;;;10.88;;
52266;SDS011;38223;50.940;4.034;2023-01-30T04:08:14;22.17;;;10.90;;
52266;SDS011;38223;50.940;4.034;2023-01-30T04:10:48;17.50;;;10.78;;
52266;SDS011;38223;50.940;4.034;2023-01-30T04:13:18;20.52;;;10.43;;
52266;SDS011;38223;50.940;4.034;2023-01-30T04:15:47;18.52;;;10.95;;
52266;SDS011;38223;50.940;4.034;2023-01-30T04:18:18;13.88;;;10.45;;
52266;SDS011;38223;50.940;4.034;2023-01-30T04:20:54;17.30;;;10.45;;
52266;SDS011;38223;50.940;4.034;2023-01-30T04:23:23;18.48;;;10.25;;
52266;SDS011;38223;50.940;4.034;2023-01-30T04:25:58;19.62;;;9.93;;
52266;SDS011;38223;50.940;4.034;2023-01-30T04:28:27;19.02;;;9.80;;
52266;SDS011;38223;50.940;4.034;2023-01-30T04:30:59;20.23;;;9.93;;
52266;SDS011;38223;50.940;4.034;2023-01-30T04:33:30;23.27;;;9.40;;
52266;SDS011;38223;50.940;4.034;2023-01-30T04:36:05;21.05;;;8.73;;
52266;SDS011;38223;50.940;4.034;2023-01-30T04:38:35;13.45;;;8.43;;
52266;SDS011;38223;50.940;4.034;2023-01-30T04:41:08;14.75;;;8.48;;
52266;SDS011;38223;50.940;4.034;2023-01-30T04:43:41;13.47;;;8.03;;
52266;SDS011;38223;50.940;4.034;2023-01-30T04:46:11;16.52;;;8.08;;
52266;SDS011;38223;50.940;4.034;2023-01-30T04:48:45;11.75;;;7.33;;
52266;SDS011;38223;50.940;4.034;2023-01-30T04:51:33;17.32;;;7.35;;
52266;SDS011;38223;50.940;4.034;2023-01-30T04:54:07;15.60;;;7.65;;
52266;SDS011;38223;50.940;4.034;2023-01-30T04:56:35;11.85;;;6.47;;
52266;SDS011;38223;50.940;4.034;2023-01-30T04:59:08;14.83;;;6.00;;
52266;SDS011;38223;50.940;4.034;2023-01-30T05:01:41;13.05;;;6.78;;
52266;SDS011;38223;50.940;4.034;2023-01-30T05:04:15;14.28;;;6.15;;
52266;SDS011;38223;50.940;4.034;2023-01-30T05:06:44;12.82;;;6.15;;
52266;SDS011;38223;50.940;4.034;2023-01-30T05:09:18;15.88;;;6.60;;
52266;SDS011;38223;50.940;4.034;2023-01-30T05:11:50;13.13;;;6.25;;
52266;SDS011;38223;50.940;4.034;2023-01-30T05:14:21;11.33;;;6.12;;
52266;SDS011;38223;50.940;4.034;2023-01-30T05:16:58;11.75;;;6.45;;
52266;SDS011;38223;50.940;4.034;2023-01-30T05:19:30;7.12;;;5.28;;
52266;SDS011;38223;50.940;4.034;2023-01-30T05:21:59;12.47;;;5.50;;
52266;SDS011;38223;50.940;4.034;2023-01-30T05:24:33;16.15;;;6.17;;
52266;SDS011;38223;50.940;4.034;2023-01-30T05:27:03;12.70;;;4.95;;
52266;SDS011;38223;50.940;4.034;2023-01-30T05:29:40;10.20;;;5.40;;
52266;SDS011;38223;50.940;4.034;2023-01-30T05:32:27;10.13;;;5.00;;
52266;SDS011;38223;50.940;4.034;2023-01-30T05:34:59;8.53;;;5.15;;
52266;SDS011;38223;50.940;4.034;2023-01-30T05:37:28;8.55;;;5.55;;
52266;SDS011;38223;50.940;4.034;2023-01-30T05:40:02;10.13;;;5.37;;
52266;SDS011;38223;50.940;4.034;2023-01-30T05:42:37;8.98;;;4.65;;
52266;SDS011;38223;50.940;4.034;2023-01-30T05:45:13;12.40;;;5.28;;
52266;SDS011;38223;50.940;4.034;2023-01-30T05:47:43;10.93;;;6.08;;
52266;SDS011;38223;50.940;4.034;2023-01-30T05:50:15;9.25;;;5.60;;
52266;SDS011;38223;50.940;4.034;2023-01-30T05:52:49;9.73;;;5.60;;
52266;SDS011;38223;50.940;4.034;2023-01-30T05:55:22;10.30;;;5.85;;
52266;SDS011;38223;50.940;4.034;2023-01-30T05:57:51;14.18;;;5.37;;
52266;SDS011;38223;50.940;4.034;2023-01-30T06:00:26;9.43;;;6.20;;
52266;SDS011;38223;50.940;4.034;2023-01-30T06:02:57;10.72;;;5.80;;
52266;SDS011;38223;50.940;4.034;2023-01-30T06:05:26;9.25;;;6.20;;
52266;SDS011;38223;50.940;4.034;2023-01-30T06:07:59;10.82;;;6.15;;
52266;SDS011;38223;50.940;4.034;2023-01-30T06:10:32;9.43;;;5.80;;
52266;SDS011;38223;50.940;4.034;2023-01-30T06:13:06;10.53;;;5.85;;
52266;SDS011;38223;50.940;4.034;2023-01-30T06:15:37;7.33;;;5.62;;
52266;SDS011;38223;50.940;4.034;2023-01-30T06:18:08;10.15;;;5.30;;
52266;SDS011;38223;50.940;4.034;2023-01-30T06:20:46;8.60;;;5.97;;
52266;SDS011;38223;50.940;4.034;2023-01-30T06:23:22;11.30;;;5.22;;
52266;SDS011;38223;50.940;4.034;2023-01-30T06:25:59;8.60;;;4.78;;
52266;SDS011;38223;50.940;4.034;2023-01-30T06:28:29;8.68;;;4.67;;
52266;SDS011;38223;50.940;4.034;2023-01-30T06:31:09;10.68;;;5.55;;
52266;SDS011;38223;50.940;4.034;2023-01-30T06:33:37;10.60;;;5.30;;
52266;SDS011;38223;50.940;4.034;2023-01-30T06:36:11;9.75;;;4.90;;
52266;SDS011;38223;50.940;4.034;2023-01-30T06:38:42;7.97;;;4.67;;
52266;SDS011;38223;50.940;4.034;2023-01-30T06:41:15;10.75;;;5.28;;
52266;SDS011;38223;50.940;4.034;2023-01-30T06:43:44;7.30;;;4.53;;
52266;SDS011;38223;50.940;4.034;2023-01-30T06:46:17;6.42;;;4.67;;
52266;SDS011;38223;50.940;4.034;2023-01-30T06:48:50;14.95;;;5.70;;
52266;SDS011;38223;50.940;4.034;2023-01-30T06:51:23;11.28;;;4.95;;
52266;SDS011;38223;50.940;4.034;2023-01-30T06:53:52;9.45;;;4.42;;
52266;SDS011;38223;50.940;4.034;2023-01-30T06:56:25;9.03;;;4.37;;
52266;SDS011;38223;50.940;4.034;2023-01-30T06:58:57;9.13;;;4.37;;
52266;SDS011;38223;50.940;4.034;2023-01-30T07:01:28;12.50;;;4.05;;
52266;SDS011;38223;50.940;4.034;2023-01-30T07:04:05;7.97;;;4.55;;
52266;SDS011;38223;50.940;4.034;2023-01-30T07:06:35;9.88;;;4.53;;
52266;SDS011;38223;50.940;4.034;2023-01-30T07:09:09;8.00;;;4.83;;
52266;SDS011;38223;50.940;4.034;2023-01-30T07:11:40;9.50;;;4.25;;
52266;SDS011;38223;50.940;4.034;2023-01-30T07:14:13;10.00;;;4.45;;
52266;SDS011;38223;50.940;4.034;2023-01-30T07:16:42;14.07;;;4.37;;
52266;SDS011;38223;50.940;4.034;2023-01-30T07:19:13;9.63;;;3.70;;
52266;SDS011;38223;50.940;4.034;2023-01-30T07:21:46;14.30;;;3.75;;
52266;SDS011;38223;50.940;4.034;2023-01-30T07:24:19;15.72;;;4.15;;
52266;SDS011;38223;50.940;4.034;2023-01-30T07:26:51;9.78;;;3.42;;
52266;SDS011;38223;50.940;4.034;2023-01-30T07:29:26;9.53;;;4.10;;
52266;SDS011;38223;50.940;4.034;2023-01-30T07:31:58;11.25;;;3.40;;
52266;SDS011;38223;50.940;4.034;2023-01-30T07:34:32;14.15;;;3.77;;
52266;SDS011;38223;50.940;4.034;2023-01-30T07:37:05;13.13;;;2.87;;
52266;SDS011;38223;50.940;4.034;2023-01-30T07:39:36;10.68;;;3.25;;
52266;SDS011;38223;50.940;4.034;2023-01-30T07:42:09;12.25;;;3.95;;
52266;SDS011;38223;50.940;4.034;2023-01-30T07:44:39;14.03;;;3.50;;
52266;SDS011;38223;50.940;4.034;2023-01-30T07:47:11;14.75;;;3.77;;
52266;SDS011;38223;50.940;4.034;2023-01-30T07:49:43;17.07;;;4.05;;
52266;SDS011;38223;50.940;4.034;2023-01-30T07:52:15;15.43;;;4.60;;
52266;SDS011;38223;50.940;4.034;2023-01-30T07:54:46;12.63;;;2.92;;
52266;SDS011;38223;50.940;4.034;2023-01-30T07:57:15;9.68;;;3.17;;
52266;SDS011;38223;50.940;4.034;2023-01-30T07:59:48;12.45;;;2.42;;
52266;SDS011;38223;50.940;4.034;2023-01-30T08:02:17;15.30;;;3.80;;
52266;SDS011;38223;50.940;4.034;2023-01-30T08:04:53;10.50;;;2.60;;
52266;SDS011;38223;50.940;4.034;2023-01-30T08:07:22;12.37;;;3.65;;
52266;SDS011;38223;50.940;4.034;2023-01-30T08:09:54;7.95;;;2.37;;
52266;SDS011;38223;50.940;4.034;2023-01-30T08:12:23;11.63;;;3.00;;
52266;SDS011;38223;50.940;4.034;2023-01-30T08:15:02;12.37;;;2.80;;
52266;SDS011;38223;50.940;4.034;2023-01-30T08:17:34;12.73;;;3.15;;
52266;SDS011;38223;50.940;4.034;2023-01-30T08:20:07;6.42;;;2.10;;
52266;SDS011;38223;50.940;4.034;2023-01-30T08:22:40;14.07;;;2.42;;
52266;SDS011;38223;50.940;4.034;2023-01-30T08:25:11;8.70;;;2.90;;
52266;SDS011;38223;50.940;4.034;2023-01-30T08:27:44;11.93;;;2.58;;
52266;SDS011;38223;50.940;4.034;2023-01-30T08:30:18;9.70;;;2.12;;
52266;SDS011;38223;50.940;4.034;2023-01-30T08:32:52;9.53;;;2.47;;
52266;SDS011;38223;50.940;4.034;2023-01-30T08:35:24;12.03;;;2.27;;
52266;SDS011;38223;50.940;4.034;2023-01-30T08:37:55;11.90;;;2.37;;
52266;SDS011;38223;50.940;4.034;2023-01-30T08:40:25;6.35;;;2.15;;
52266;SDS011;38223;50.940;4.034;2023-01-30T08:42:57;10.48;;;2.58;;
52266;SDS011;38223;50.940;4.034;2023-01-30T08:45:33;10.00;;;2.72;;
52266;SDS011;38223;50.940;4.034;2023-01-30T08:48:06;10.58;;;2.50;;
52266;SDS011;38223;50.940;4.034;2023-01-30T08:50:41;9.10;;;2.77;;
52266;SDS011;38223;50.940;4.034;2023-01-30T08:53:22;11.35;;;2.50;;
52266;SDS011;38223;50.940;4.034;2023-01-30T08:55:53;11.05;;;2.37;;
52266;SDS011;38223;50.940;4.034;2023-01-30T08:58:24;12.37;;;2.85;;
52266;SDS011;38223;50.940;4.034;2023-01-30T09:00:56;11.73;;;2.62;;
52266;SDS011;38223;50.940;4.034;2023-01-30T09:03:23;11.40;;;2.50;;
52266;SDS011;38223;50.940;4.034;2023-01-30T09:08:24;14.50;;;2.92;;
52266;SDS011;38223;50.940;4.034;2023-01-30T09:10:58;14.35;;;2.85;;
52266;SDS011;38223;50.940;4.034;2023-01-30T09:13:29;12.93;;;2.27;;
52266;SDS011;38223;50.940;4.034;2023-01-30T09:16:02;10.93;;;2.58;;
52266;SDS011;38223;50.940;4.034;2023-01-30T09:18:40;17.75;;;3.42;;
52266;SDS011;38223;50.940;4.034;2023-01-30T09:21:13;14.83;;;2.83;;
52266;SDS011;38223;50.940;4.034;2023-01-30T09:23:42;12.68;;;3.58;;
52266;SDS011;38223;50.940;4.034;2023-01-30T09:26:11;11.68;;;2.98;;
52266;SDS011;38223;50.940;4.034;2023-01-30T09:28:42;15.08;;;3.55;;
52266;SDS011;38223;50.940;4.034;2023-01-30T09:31:17;10.63;;;3.15;;
52266;SDS011;38223;50.940;4.034;2023-01-30T09:33:49;12.07;;;2.65;;
52266;SDS011;38223;50.940;4.034;2023-01-30T09:36:17;16.65;;;2.90;;
52266;SDS011;38223;50.940;4.034;2023-01-30T09:38:48;11.88;;;2.80;;
52266;SDS011;38223;50.940;4.034;2023-01-30T09:47:01;16.32;;;2.98;;
52266;SDS011;38223;50.940;4.034;2023-01-30T09:55:29;11.22;;;2.80;;
52266;SDS011;38223;50.940;4.034;2023-01-30T09:57:58;15.98;;;3.27;;
52266;SDS011;38223;50.940;4.034;2023-01-30T10:00:37;18.98;;;3.27;;
52266;SDS011;38223;50.940;4.034;2023-01-30T10:03:12;17.00;;;3.22;;
52266;SDS011;38223;50.940;4.034;2023-01-30T10:06:04;13.90;;;3.05;;
52266;SDS011;38223;50.940;4.034;2023-01-30T10:22:57;14.65;;;3.00;;
52266;SDS011;38223;50.940;4.034;2023-01-30T10:28:27;16.35;;;2.55;;
52266;SDS011;38223;50.940;4.034;2023-01-30T10:31:13;18.65;;;3.17;;
52266;SDS011;38223;50.940;4.034;2023-01-30T10:33:55;17.48;;;2.87;;
52266;SDS011;38223;50.940;4.034;2023-01-30T10:36:31;9.73;;;2.22;;
52266;SDS011;38223;50.940;4.034;2023-01-30T10:39:00;17.80;;;3.55;;
52266;SDS011;38223;50.940;4.034;2023-01-30T10:41:36;14.05;;;2.75;;
52266;SDS011;38223;50.940;4.034;2023-01-30T10:44:11;14.00;;;2.75;;
52266;SDS011;38223;50.940;4.034;2023-01-30T10:49:35;12.98;;;2.00;;
52266;SDS011;38223;50.940;4.034;2023-01-30T10:52:18;16.00;;;2.70;;
52266;SDS011;38223;50.940;4.034;2023-01-30T11:00:40;10.15;;;2.27;;
52266;SDS011;38223;50.940;4.034;2023-01-30T11:03:14;17.73;;;3.22;;
52266;SDS011;38223;50.940;4.034;2023-01-30T11:08:25;15.50;;;3.00;;
52266;SDS011;38223;50.940;4.034;2023-01-30T11:10:56;13.00;;;2.62;;
52266;SDS011;38223;50.940;4.034;2023-01-30T11:16:21;21.30;;;3.15;;
52266;SDS011;38223;50.940;4.034;2023-01-30T11:18:55;16.20;;;3.30;;
52266;SDS011;38223;50.940;4.034;2023-01-30T11:21:31;12.58;;;2.30;;
52266;SDS011;38223;50.940;4.034;2023-01-30T11:24:10;23.02;;;3.72;;
52266;SDS011;38223;50.940;4.034;2023-01-30T11:26:37;11.83;;;3.17;;
52266;SDS011;38223;50.940;4.034;2023-01-30T11:29:29;14.55;;;2.77;;
52266;SDS011;38223;50.940;4.034;2023-01-30T11:32:26;21.23;;;2.75;;
52266;SDS011;38223;50.940;4.034;2023-01-30T11:35:00;14.50;;;2.85;;
52266;SDS011;38223;50.940;4.034;2023-01-30T11:37:26;10.88;;;2.47;;
52266;SDS011;38223;50.940;4.034;2023-01-30T11:39:55;13.22;;;2.75;;
52266;SDS011;38223;50.940;4.034;2023-01-30T11:42:30;15.45;;;2.65;;
52266;SDS011;38223;50.940;4.034;2023-01-30T11:45:00;13.15;;;2.55;;
52266;SDS011;38223;50.940;4.034;2023-01-30T11:47:32;17.98;;;3.67;;
52266;SDS011;38223;50.940;4.034;2023-01-30T11:50:05;17.80;;;3.20;;
52266;SDS011;38223;50.940;4.034;2023-01-30T11:52:39;20.52;;;3.72;;
52266;SDS011;38223;50.940;4.034;2023-01-30T11:55:14;17.15;;;3.45;;
52266;SDS011;38223;50.940;4.034;2023-01-30T11:57:53;16.27;;;2.90;;
52266;SDS011;38223;50.940;4.034;2023-01-30T12:00:26;14.60;;;2.90;;
52266;SDS011;38223;50.940;4.034;2023-01-30T12:02:57;19.60;;;3.33;;
52266;SDS011;38223;50.940;4.034;2023-01-30T12:05:31;15.78;;;3.60;;
52266;SDS011;38223;50.940;4.034;2023-01-30T12:08:21;18.85;;;3.67;;
52266;SDS011;38223;50.940;4.034;2023-01-30T12:10:50;12.68;;;2.80;;
52266;SDS011;38223;50.940;4.034;2023-01-30T12:13:28;13.53;;;3.02;;
52266;SDS011;38223;50.940;4.034;2023-01-30T12:15:56;16.27;;;2.65;;
52266;SDS011;38223;50.940;4.034;2023-01-30T12:18:45;14.05;;;3.25;;
52266;SDS011;38223;50.940;4.034;2023-01-30T12:21:30;16.97;;;2.93;;
52266;SDS011;38223;50.940;4.034;2023-01-30T12:26:46;23.55;;;2.67;;
52266;SDS011;38223;50.940;4.034;2023-01-30T12:34:37;16.27;;;2.75;;
52266;SDS011;38223;50.940;4.034;2023-01-30T12:40:17;21.02;;;3.55;;
52266;SDS011;38223;50.940;4.034;2023-01-30T12:43:06;15.00;;;2.98;;
52266;SDS011;38223;50.940;4.034;2023-01-30T12:48:59;16.30;;;2.50;;
52266;SDS011;38223;50.940;4.034;2023-01-30T12:54:37;9.63;;;2.47;;
52266;SDS011;38223;50.940;4.034;2023-01-30T13:00:09;11.40;;;2.90;;
52266;SDS011;38223;50.940;4.034;2023-01-30T13:05:59;13.18;;;2.92;;
52266;SDS011;38223;50.940;4.034;2023-01-30T13:17:31;13.13;;;2.98;;
52266;SDS011;38223;50.940;4.034;2023-01-30T13:22:47;13.20;;;3.37;;
52266;SDS011;38223;50.940;4.034;2023-01-30T13:28:02;14.25;;;3.10;;
52266;SDS011;38223;50.940;4.034;2023-01-30T13:30:31;19.35;;;3.35;;
52266;SDS011;38223;50.940;4.034;2023-01-30T13:33:09;17.65;;;3.77;;
52266;SDS011;38223;50.940;4.034;2023-01-30T13:35:42;16.50;;;3.33;;
52266;SDS011;38223;50.940;4.034;2023-01-30T13:38:20;12.50;;;2.77;;
52266;SDS011;38223;50.940;4.034;2023-01-30T13:40:56;12.65;;;2.77;;
52266;SDS011;38223;50.940;4.034;2023-01-30T13:43:31;18.60;;;3.55;;
52266;SDS011;38223;50.940;4.034;2023-01-30T13:46:10;13.58;;;2.72;;
52266;SDS011;38223;50.940;4.034;2023-01-30T13:48:54;13.88;;;2.92;;
52266;SDS011;38223;50.940;4.034;2023-01-30T14:00:14;11.12;;;2.95;;
52266;SDS011;38223;50.940;4.034;2023-01-30T14:02:35;12.82;;;2.50;;
52266;SDS011;38223;50.940;4.034;2023-01-30T14:05:09;11.90;;;3.22;;
52266;SDS011;38223;50.940;4.034;2023-01-30T14:07:40;17.50;;;2.65;;
52266;SDS011;38223;50.940;4.034;2023-01-30T14:10:15;13.28;;;3.27;;
52266;SDS011;38223;50.940;4.034;2023-01-30T14:12:49;13.35;;;3.08;;
52266;SDS011;38223;50.940;4.034;2023-01-30T14:15:24;11.83;;;3.17;;
52266;SDS011;38223;50.940;4.034;2023-01-30T14:18:12;18.00;;;3.60;;
52266;SDS011;38223;50.940;4.034;2023-01-30T14:20:42;20.50;;;3.47;;
52266;SDS011;38223;50.940;4.034;2023-01-30T14:26:06;16.10;;;3.95;;
52266;SDS011;38223;50.940;4.034;2023-01-30T14:31:06;16.93;;;3.05;;
52266;SDS011;38223;50.940;4.034;2023-01-30T14:33:47;13.98;;;2.47;;
52266;SDS011;38223;50.940;4.034;2023-01-30T14:36:30;11.05;;;2.52;;
52266;SDS011;38223;50.940;4.034;2023-01-30T14:42:20;16.90;;;3.00;;
52266;SDS011;38223;50.940;4.034;2023-01-30T14:45:17;14.45;;;2.83;;
52266;SDS011;38223;50.940;4.034;2023-01-30T14:47:48;14.73;;;2.75;;
52266;SDS011;38223;50.940;4.034;2023-01-30T14:50:23;15.18;;;3.60;;
52266;SDS011;38223;50.940;4.034;2023-01-30T14:52:53;17.70;;;3.27;;
52266;SDS011;38223;50.940;4.034;2023-01-30T14:55:25;12.35;;;3.25;;
52266;SDS011;38223;50.940;4.034;2023-01-30T14:57:59;21.35;;;3.60;;
52266;SDS011;38223;50.940;4.034;2023-01-30T15:00:30;17.07;;;3.08;;
52266;SDS011;38223;50.940;4.034;2023-01-30T15:03:08;16.40;;;3.02;;
52266;SDS011;38223;50.940;4.034;2023-01-30T15:05:49;12.90;;;3.00;;
52266;SDS011;38223;50.940;4.034;2023-01-30T15:08:20;20.92;;;3.40;;
52266;SDS011;38223;50.940;4.034;2023-01-30T15:33:18;17.35;;;3.95;;
52266;SDS011;38223;50.940;4.034;2023-01-30T15:35:52;17.42;;;3.37;;
52266;SDS011;38223;50.940;4.034;2023-01-30T15:38:22;21.63;;;3.57;;
52266;SDS011;38223;50.940;4.034;2023-01-30T15:40:59;13.60;;;2.92;;
52266;SDS011;38223;50.940;4.034;2023-01-30T15:52:01;23.65;;;3.85;;
52266;SDS011;38223;50.940;4.034;2023-01-30T15:54:33;16.65;;;4.53;;
52266;SDS011;38223;50.940;4.034;2023-01-30T15:57:10;15.25;;;3.60;;
52266;SDS011;38223;50.940;4.034;2023-01-30T15:59:40;21.52;;;4.10;;
52266;SDS011;38223;50.940;4.034;2023-01-30T16:02:17;15.30;;;3.42;;
52266;SDS011;38223;50.940;4.034;2023-01-30T16:07:48;25.50;;;3.85;;
52266;SDS011;38223;50.940;4.034;2023-01-30T16:10:21;15.75;;;4.12;;
52266;SDS011;38223;50.940;4.034;2023-01-30T16:12:55;17.73;;;4.55;;
52266;SDS011;38223;50.940;4.034;2023-01-30T16:15:31;18.70;;;4.05;;
52266;SDS011;38223;50.940;4.034;2023-01-30T16:20:58;13.72;;;3.70;;
52266;SDS011;38223;50.940;4.034;2023-01-30T16:26:07;21.12;;;3.90;;
52266;SDS011;38223;50.940;4.034;2023-01-30T16:28:50;21.07;;;4.03;;
52266;SDS011;38223;50.940;4.034;2023-01-30T16:31:39;18.92;;;3.70;;
52266;SDS011;38223;50.940;4.034;2023-01-30T16:34:24;20.75;;;4.15;;
52266;SDS011;38223;50.940;4.034;2023-01-30T16:37:00;18.80;;;5.28;;
52266;SDS011;38223;50.940;4.034;2023-01-30T16:39:32;15.95;;;3.50;;
52266;SDS011;38223;50.940;4.034;2023-01-30T16:44:58;15.88;;;4.72;;
52266;SDS011;38223;50.940;4.034;2023-01-30T16:47:28;26.85;;;5.42;;
52266;SDS011;38223;50.940;4.034;2023-01-30T16:50:03;16.85;;;4.50;;
52266;SDS011;38223;50.940;4.034;2023-01-30T16:52:43;22.60;;;4.05;;
52266;SDS011;38223;50.940;4.034;2023-01-30T16:55:19;15.85;;;4.03;;
52266;SDS011;38223;50.940;4.034;2023-01-30T16:57:58;20.25;;;4.55;;
52266;SDS011;38223;50.940;4.034;2023-01-30T17:00:33;26.10;;;4.90;;
52266;SDS011;38223;50.940;4.034;2023-01-30T17:03:18;24.45;;;4.37;;
52266;SDS011;38223;50.940;4.034;2023-01-30T17:06:02;20.25;;;3.77;;
52266;SDS011;38223;50.940;4.034;2023-01-30T17:08:59;21.17;;;5.15;;
52266;SDS011;38223;50.940;4.034;2023-01-30T17:16:41;24.40;;;4.75;;
52266;SDS011;38223;50.940;4.034;2023-01-30T17:19:42;16.23;;;5.10;;
52266;SDS011;38223;50.940;4.034;2023-01-30T17:22:19;24.27;;;4.70;;
52266;SDS011;38223;50.940;4.034;2023-01-30T17:24:49;19.60;;;4.35;;
52266;SDS011;38223;50.940;4.034;2023-01-30T17:27:23;19.10;;;4.28;;
52266;SDS011;38223;50.940;4.034;2023-01-30T17:29:56;14.10;;;4.30;;
52266;SDS011;38223;50.940;4.034;2023-01-30T17:32:23;24.18;;;4.53;;
52266;SDS011;38223;50.940;4.034;2023-01-30T17:34:51;18.15;;;4.30;;
52266;SDS011;38223;50.940;4.034;2023-01-30T17:37:20;17.25;;;4.28;;
52266;SDS011;38223;50.940;4.034;2023-01-30T17:39:50;25.97;;;4.62;;
52266;SDS011;38223;50.940;4.034;2023-01-30T17:42:19;20.00;;;3.85;;
52266;SDS011;38223;50.940;4.034;2023-01-30T17:44:53;16.50;;;3.92;;
52266;SDS011;38223;50.940;4.034;2023-01-30T17:47:24;18.17;;;4.08;;
52266;SDS011;38223;50.940;4.034;2023-01-30T17:49:59;23.80;;;4.03;;
52266;SDS011;38223;50.940;4.034;2023-01-30T17:52:30;19.00;;;4.92;;
52266;SDS011;38223;50.940;4.034;2023-01-30T17:55:01;17.00;;;3.67;;
52266;SDS011;38223;50.940;4.034;2023-01-30T17:57:30;14.33;;;3.58;;
52266;SDS011;38223;50.940;4.034;2023-01-30T18:00:03;18.62;;;4.45;;
52266;SDS011;38223;50.940;4.034;2023-01-30T18:02:35;14.43;;;4.05;;
52266;SDS011;38223;50.940;4.034;2023-01-30T18:05:07;20.97;;;5.35;;
52266;SDS011;38223;50.940;4.034;2023-01-30T18:07:36;15.43;;;4.10;;
52266;SDS011;38223;50.940;4.034;2023-01-30T18:10:10;22.67;;;4.97;;
52266;SDS011;38223;50.940;4.034;2023-01-30T18:13:05;23.20;;;4.83;;
52266;SDS011;38223;50.940;4.034;2023-01-30T18:15:37;22.73;;;5.42;;
52266;SDS011;38223;50.940;4.034;2023-01-30T18:18:08;23.98;;;5.90;;
52266;SDS011;38223;50.940;4.034;2023-01-30T18:20:40;22.65;;;5.97;;
52266;SDS011;38223;50.940;4.034;2023-01-30T18:23:13;17.90;;;6.20;;
52266;SDS011;38223;50.940;4.034;2023-01-30T18:25:41;21.55;;;6.35;;
52266;SDS011;38223;50.940;4.034;2023-01-30T18:28:17;28.90;;;7.05;;
52266;SDS011;38223;50.940;4.034;2023-01-30T18:30:46;25.43;;;6.78;;
52266;SDS011;38223;50.940;4.034;2023-01-30T18:33:20;16.52;;;5.65;;
52266;SDS011;38223;50.940;4.034;2023-01-30T18:35:51;21.12;;;7.37;;
52266;SDS011;38223;50.940;4.034;2023-01-30T18:38:22;26.65;;;6.83;;